createdAt,value
2022-10-03T00:00:09.206Z,9.72
2022-10-03T00:05:30.375Z,9.67
2022-10-03T00:10:35.839Z,9.63
2022-10-03T00:15:36.294Z,9.56
2022-10-03T00:20:40.267Z,9.53
2022-10-03T00:25:40.772Z,9.51
2022-10-03T00:30:54.046Z,9.51
2022-10-03T00:36:19.488Z,9.50
2022-10-03T00:41:21.797Z,9.44
2022-10-03T00:46:51.867Z,9.39
2022-10-03T00:51:52.205Z,9.34
2022-10-03T00:57:09.133Z,9.34
2022-10-03T01:02:25.331Z,9.36
2022-10-03T01:07:44.461Z,9.37
2022-10-03T01:12:58.098Z,9.39
2022-10-03T01:18:01.834Z,9.35
2022-10-03T01:22:59.003Z,9.35
2022-10-03T01:28:39.753Z,9.32
2022-10-03T01:33:38.033Z,9.32
2022-10-03T01:38:48.293Z,9.32
2022-10-03T01:43:50.448Z,9.30
2022-10-03T01:49:00.709Z,9.29
2022-10-03T01:54:01.396Z,9.29
2022-10-03T01:59:08.719Z,9.27
2022-10-03T02:04:23.122Z,9.26
2022-10-03T02:09:25.361Z,9.26
2022-10-03T02:14:48.608Z,9.26
2022-10-03T02:19:52.260Z,9.25
2022-10-03T02:24:56.146Z,9.24
2022-10-03T02:30:12.656Z,9.24
2022-10-03T02:35:22.125Z,9.14
2022-10-03T02:40:26.297Z,9.06
2022-10-03T02:45:20.736Z,9.01
2022-10-03T02:50:21.441Z,8.96
2022-10-03T02:55:36.570Z,8.91
2022-10-03T03:01:19.525Z,8.88
2022-10-03T03:06:35.958Z,8.83
2022-10-03T03:12:16.616Z,8.77
2022-10-03T03:17:17.331Z,8.75
2022-10-03T03:22:35.413Z,8.74
2022-10-03T03:27:43.333Z,8.74
2022-10-03T03:32:46.066Z,8.71
2022-10-03T03:37:55.534Z,8.71
2022-10-03T03:43:00.367Z,8.74
2022-10-03T03:48:15.476Z,8.75
2022-10-03T03:53:25.255Z,8.75
2022-10-03T03:58:35.454Z,8.75
2022-10-03T04:03:58.422Z,8.81
2022-10-03T04:09:35.036Z,8.87
2022-10-03T04:14:52.221Z,8.93
2022-10-03T04:20:05.972Z,9.00
2022-10-03T04:25:18.200Z,9.04
2022-10-03T04:30:35.792Z,9.09
2022-10-03T04:35:42.198Z,9.14
2022-10-03T04:40:43.398Z,9.19
2022-10-03T04:45:41.241Z,9.24
2022-10-03T04:50:51.291Z,9.27
2022-10-03T04:55:48.884Z,9.32
2022-10-03T05:01:06.615Z,9.34
2022-10-03T05:06:06.216Z,9.34
2022-10-03T05:11:35.332Z,9.36
2022-10-03T05:16:38.347Z,9.36
2022-10-03T05:21:47.398Z,9.35
2022-10-03T05:27:23.982Z,9.35
2022-10-03T05:32:31.621Z,9.39
2022-10-03T05:37:35.677Z,9.42
2022-10-03T05:42:36.849Z,9.45
2022-10-03T05:47:45.804Z,9.48
2022-10-03T05:52:43.605Z,9.50
2022-10-03T05:57:35.215Z,9.53
2022-10-03T06:02:32.923Z,9.55
2022-10-03T06:07:52.604Z,9.58
2022-10-03T06:12:54.377Z,9.58
2022-10-03T06:18:04.526Z,9.59
2022-10-03T06:23:24.399Z,9.61
2022-10-03T06:28:28.509Z,9.59
2022-10-03T06:33:53.236Z,9.54
2022-10-03T06:39:22.725Z,9.55
2022-10-03T06:44:45.137Z,9.55
2022-10-03T06:50:11.374Z,9.54
2022-10-03T06:55:12.233Z,9.52
2022-10-03T07:00:09.794Z,9.50
2022-10-03T07:05:16.490Z,9.50
2022-10-03T07:10:30.089Z,9.55
2022-10-03T07:16:06.245Z,9.61
2022-10-03T07:21:01.429Z,9.67
2022-10-03T07:26:26.975Z,9.76
2022-10-03T07:31:21.724Z,9.85
2022-10-03T07:36:50.366Z,9.95
2022-10-03T07:42:04.109Z,10.10
2022-10-03T07:47:41.941Z,10.23
2022-10-03T07:53:08.045Z,10.70
2022-10-03T07:58:08.617Z,11.39
2022-10-03T08:03:24.935Z,12.09
2022-10-03T08:08:51.663Z,12.35
2022-10-03T08:14:01.919Z,12.55
2022-10-03T08:19:22.785Z,12.88
2022-10-03T08:24:22.904Z,13.24
2022-10-03T08:29:29.433Z,13.45
2022-10-03T08:34:33.702Z,13.46
2022-10-03T08:39:42.060Z,13.70
2022-10-03T08:44:36.389Z,14.29
2022-10-03T08:49:36.842Z,14.65
2022-10-03T08:54:51.535Z,14.68
2022-10-03T09:00:04.741Z,14.60
2022-10-03T09:05:15.292Z,14.55
2022-10-03T09:10:42.278Z,14.55
2022-10-03T09:16:10.600Z,14.60
2022-10-03T09:21:17.886Z,14.54
2022-10-03T09:26:24.614Z,14.45
2022-10-03T09:31:35.247Z,14.39
2022-10-03T09:36:44.872Z,14.47
2022-10-03T09:41:55.185Z,14.51
2022-10-03T09:47:12.608Z,14.56
2022-10-03T09:52:30.035Z,14.60
2022-10-03T09:57:42.207Z,14.56
2022-10-03T10:02:49.126Z,14.63
2022-10-03T10:08:06.033Z,14.72
2022-10-03T10:13:19.611Z,14.79
2022-10-03T10:18:17.265Z,14.92
2022-10-03T10:23:28.744Z,15.35
2022-10-03T10:28:58.625Z,15.59
2022-10-03T10:34:17.741Z,15.72
2022-10-03T10:39:36.589Z,15.98
2022-10-03T10:44:46.972Z,16.24
2022-10-03T10:50:00.286Z,16.39
2022-10-03T10:55:03.727Z,16.42
2022-10-03T11:00:10.712Z,16.62
2022-10-03T11:05:38.262Z,16.82
2022-10-03T11:10:52.495Z,17.11
2022-10-03T11:15:53.150Z,17.33
2022-10-03T11:21:04.488Z,17.61
2022-10-03T11:26:21.095Z,17.76
2022-10-03T11:31:34.422Z,17.71
2022-10-03T11:36:59.977Z,17.82
2022-10-03T11:42:02.489Z,18.31
2022-10-03T11:47:00.098Z,18.54
2022-10-03T11:52:06.786Z,18.73
2022-10-03T11:57:43.971Z,18.84
2022-10-03T12:03:03.429Z,19.00
2022-10-03T12:08:47.748Z,19.01
2022-10-03T12:14:11.751Z,19.18
2022-10-03T12:19:20.934Z,19.46
2022-10-03T12:24:42.901Z,19.46
2022-10-03T12:29:39.138Z,19.42
2022-10-03T12:34:40.179Z,19.28
2022-10-03T12:39:58.686Z,19.26
2022-10-03T12:45:02.286Z,19.19
2022-10-03T12:50:15.430Z,19.09
2022-10-03T12:55:38.497Z,18.96
2022-10-03T13:00:56.047Z,18.89
2022-10-03T13:06:02.877Z,18.72
2022-10-03T13:11:08.969Z,18.53
2022-10-03T13:16:08.846Z,18.43
2022-10-03T13:21:26.661Z,18.26
2022-10-03T13:26:47.051Z,18.08
2022-10-03T13:31:57.280Z,18.00
2022-10-03T13:37:05.329Z,18.02
2022-10-03T13:42:13.826Z,18.12
2022-10-03T13:47:43.541Z,18.20
2022-10-03T13:53:01.407Z,18.26
2022-10-03T13:58:13.143Z,18.22
2022-10-03T14:03:15.900Z,18.12
2022-10-03T14:08:17.446Z,18.00
2022-10-03T14:13:21.744Z,17.94
2022-10-03T14:18:44.975Z,17.84
2022-10-03T14:23:50.702Z,17.77
2022-10-03T14:29:05.634Z,17.65
2022-10-03T14:34:07.841Z,17.54
2022-10-03T14:39:38.158Z,17.51
2022-10-03T14:44:38.734Z,17.48
2022-10-03T14:54:45.274Z,17.44
2022-10-03T14:59:37.239Z,17.47
2022-10-03T15:04:35.607Z,17.50
2022-10-03T15:09:40.194Z,17.49
2022-10-03T15:14:36.271Z,17.43
2022-10-03T15:19:44.101Z,17.41
2022-10-03T15:24:36.113Z,17.37
2022-10-03T15:29:29.396Z,17.34
2022-10-03T15:34:30.566Z,17.37
2022-10-03T15:39:43.984Z,17.26
2022-10-03T15:44:50.342Z,17.13
2022-10-03T15:49:54.754Z,17.03
2022-10-03T15:55:11.047Z,16.98
2022-10-03T16:00:06.917Z,16.95
2022-10-03T16:04:58.874Z,16.95
2022-10-03T16:10:01.101Z,16.93
2022-10-03T16:15:17.127Z,16.92
2022-10-03T16:20:15.359Z,16.92
2022-10-03T16:25:25.687Z,16.89
2022-10-03T16:30:41.621Z,16.87
2022-10-03T16:35:37.748Z,16.79
2022-10-03T16:40:30.204Z,16.71
2022-10-03T16:45:27.023Z,16.63
2022-10-03T16:50:25.910Z,16.54
2022-10-03T16:55:28.561Z,16.39
2022-10-03T17:00:25.670Z,16.29
2022-10-03T17:05:19.125Z,16.18
2022-10-03T17:10:21.817Z,16.06
2022-10-03T17:15:22.381Z,15.93
2022-10-03T17:20:39.146Z,15.86
2022-10-03T17:25:38.079Z,15.78
2022-10-03T17:30:44.127Z,15.67
2022-10-03T17:35:35.761Z,15.56
2022-10-03T17:41:08.311Z,15.48
2022-10-03T17:46:12.560Z,15.36
2022-10-03T17:51:35.141Z,15.28
2022-10-03T17:56:32.835Z,15.15
2022-10-03T18:01:35.943Z,15.10
2022-10-03T18:06:34.467Z,15.05
2022-10-03T18:11:29.146Z,14.97
2022-10-03T18:16:33.426Z,14.90
2022-10-03T18:21:35.993Z,14.84
2022-10-03T18:26:33.616Z,14.76
2022-10-03T18:31:27.315Z,14.71
2022-10-03T18:36:26.195Z,14.67
2022-10-03T18:41:19.277Z,14.63
2022-10-03T18:46:19.627Z,14.60
2022-10-03T18:51:17.434Z,14.57
2022-10-03T18:56:27.406Z,14.52
2022-10-03T19:01:38.207Z,14.48
2022-10-03T19:06:36.440Z,14.41
2022-10-03T19:11:43.408Z,14.36
2022-10-03T19:16:53.644Z,14.32
2022-10-03T19:21:47.896Z,14.28
2022-10-03T19:26:49.407Z,14.26
2022-10-03T19:31:47.069Z,14.19
2022-10-03T19:36:41.039Z,14.11
2022-10-03T19:41:43.671Z,14.04
2022-10-03T19:46:50.661Z,13.97
2022-10-03T19:51:42.434Z,13.94
2022-10-03T19:56:35.993Z,13.89
2022-10-03T20:01:27.855Z,13.84
2022-10-03T20:06:23.750Z,13.80
2022-10-03T20:11:36.816Z,13.75
2022-10-03T20:16:35.863Z,13.67
2022-10-03T20:21:30.141Z,13.64
2022-10-03T20:26:24.555Z,13.60
2022-10-03T20:31:25.412Z,13.58
2022-10-03T20:36:28.965Z,13.55
2022-10-03T20:41:35.730Z,13.52
2022-10-03T20:46:35.953Z,13.48
2022-10-03T20:51:54.811Z,13.44
2022-10-03T20:56:58.557Z,13.41
2022-10-03T21:02:00.316Z,13.41
2022-10-03T21:07:04.158Z,13.34
2022-10-03T21:11:57.261Z,13.33
2022-10-03T21:16:52.076Z,13.30
2022-10-03T21:21:52.721Z,13.28
2022-10-03T21:26:48.265Z,13.26
2022-10-03T21:31:55.023Z,13.24
2022-10-03T21:36:46.720Z,13.20
2022-10-03T21:42:05.615Z,13.17
2022-10-03T21:47:32.683Z,13.14
2022-10-03T21:52:42.454Z,13.07
2022-10-03T21:57:52.326Z,13.06
2022-10-03T22:02:52.744Z,13.04
2022-10-03T22:07:45.739Z,13.04
2022-10-03T22:12:44.089Z,13.03
2022-10-03T22:17:52.972Z,12.96
2022-10-03T22:23:10.682Z,12.98
2022-10-03T22:28:20.727Z,12.96
2022-10-03T22:33:38.240Z,12.96
2022-10-03T22:38:33.793Z,12.97
2022-10-03T22:43:27.266Z,12.95
2022-10-03T22:48:28.360Z,12.95
2022-10-03T22:53:24.350Z,13.01
2022-10-03T22:58:17.005Z,12.97
2022-10-03T23:03:18.522Z,12.97
2022-10-03T23:08:10.129Z,13.03
2022-10-03T23:13:05.409Z,13.05
2022-10-03T23:18:09.756Z,13.10
2022-10-03T23:23:11.301Z,13.10
2022-10-03T23:28:29.905Z,13.08
2022-10-03T23:33:41.840Z,13.05
2022-10-03T23:38:33.559Z,13.00
2022-10-03T23:43:33.237Z,12.88
2022-10-03T23:48:27.530Z,12.75
2022-10-03T23:53:41.257Z,12.74
2022-10-03T23:58:36.738Z,12.71
